createdAt,value
2022-08-29T00:01:28.703Z,116.50
2022-08-29T00:04:00.735Z,126.93
2022-08-29T00:06:30.904Z,118.32
2022-08-29T00:09:00.019Z,116.20
2022-08-29T00:11:29.366Z,126.30
2022-08-29T00:13:58.556Z,111.68
2022-08-29T00:16:27.985Z,110.22
2022-08-29T00:18:58.725Z,115.43
2022-08-29T00:21:27.973Z,121.80
2022-08-29T00:23:57.247Z,113.05
2022-08-29T00:26:26.680Z,111.72
2022-08-29T00:28:59.381Z,121.93
2022-08-29T00:31:30.347Z,128.82
2022-08-29T00:34:00.967Z,116.25
2022-08-29T00:36:30.702Z,113.78
2022-08-29T00:39:00.737Z,116.10
2022-08-29T00:41:29.899Z,114.53
2022-08-29T00:43:59.164Z,104.75
2022-08-29T00:46:55.565Z,111.50
2022-08-29T00:49:39.269Z,113.03
2022-08-29T00:52:15.193Z,111.57
2022-08-29T00:54:49.056Z,109.95
2022-08-29T00:57:20.366Z,108.50
2022-08-29T00:59:51.883Z,114.93
2022-08-29T01:02:21.282Z,106.63
2022-08-29T01:04:52.129Z,111.53
2022-08-29T01:07:21.426Z,106.38
2022-08-29T01:09:50.805Z,102.63
2022-08-29T01:12:19.912Z,112.60
2022-08-29T01:14:55.034Z,111.80
2022-08-29T01:17:32.229Z,107.82
2022-08-29T01:20:12.424Z,116.47
2022-08-29T01:22:54.962Z,122.95
2022-08-29T01:25:31.164Z,121.65
2022-08-29T01:28:07.731Z,117.53
2022-08-29T01:30:37.017Z,105.07
2022-08-29T01:33:06.812Z,116.28
2022-08-29T01:35:37.676Z,105.32
2022-08-29T01:38:06.790Z,109.82
2022-08-29T01:40:37.449Z,115.00
2022-08-29T01:43:06.746Z,104.13
2022-08-29T01:45:35.930Z,116.32
2022-08-29T01:48:05.981Z,112.88
2022-08-29T01:50:35.218Z,115.20
2022-08-29T01:53:04.364Z,115.95
2022-08-29T01:55:33.632Z,108.95
2022-08-29T01:58:04.296Z,110.43
2022-08-29T02:00:34.468Z,111.68
2022-08-29T02:03:03.954Z,109.28
2022-08-29T02:05:33.524Z,99.20
2022-08-29T02:08:02.752Z,98.78
2022-08-29T02:10:32.072Z,104.05
2022-08-29T02:13:01.302Z,105.53
2022-08-29T02:15:32.214Z,105.85
2022-08-29T02:18:01.445Z,97.63
2022-08-29T02:20:30.618Z,102.85
2022-08-29T02:22:59.996Z,119.65
2022-08-29T02:25:47.602Z,106.55
2022-08-29T02:28:19.524Z,112.10
2022-08-29T02:30:55.825Z,105.90
2022-08-29T02:33:28.538Z,106.53
2022-08-29T02:35:58.597Z,108.30
2022-08-29T02:38:28.170Z,100.07
2022-08-29T02:40:58.368Z,101.07
2022-08-29T02:43:28.043Z,104.72
2022-08-29T02:45:58.720Z,97.40
2022-08-29T02:48:28.424Z,104.47
2022-08-29T02:50:59.959Z,100.13
2022-08-29T02:53:32.189Z,101.30
2022-08-29T02:56:02.208Z,112.85
2022-08-29T02:58:31.950Z,100.55
2022-08-29T03:01:02.579Z,107.05
2022-08-29T03:03:33.671Z,102.28
2022-08-29T03:06:03.542Z,105.75
2022-08-29T03:08:32.859Z,109.00
2022-08-29T03:11:02.176Z,101.82
2022-08-29T03:13:31.894Z,105.50
2022-08-29T03:16:03.297Z,96.10
2022-08-29T03:18:32.833Z,98.45
2022-08-29T03:21:02.082Z,99.68
2022-08-29T03:23:31.263Z,102.85
2022-08-29T03:26:00.390Z,96.57
2022-08-29T03:28:30.183Z,96.43
2022-08-29T03:30:59.362Z,97.88
2022-08-29T03:33:29.979Z,99.40
2022-08-29T03:35:59.510Z,104.72
2022-08-29T03:38:28.814Z,100.60
2022-08-29T03:40:58.263Z,92.28
2022-08-29T03:43:27.624Z,98.32
2022-08-29T03:45:56.954Z,104.38
2022-08-29T03:48:26.149Z,98.45
2022-08-29T03:50:56.971Z,105.88
2022-08-29T03:53:26.735Z,103.78
2022-08-29T03:55:56.548Z,104.55
2022-08-29T03:58:25.833Z,102.95
2022-08-29T04:00:55.059Z,103.82
2022-08-29T04:03:26.499Z,112.43
2022-08-29T04:06:02.052Z,112.28
2022-08-29T04:08:31.335Z,111.63
2022-08-29T04:11:00.617Z,102.68
2022-08-29T04:13:29.919Z,104.93
2022-08-29T04:15:59.073Z,110.13
2022-08-29T04:18:28.298Z,109.07
2022-08-29T04:21:05.101Z,100.38
2022-08-29T04:23:35.828Z,110.10
2022-08-29T04:26:30.146Z,113.72
2022-08-29T04:28:54.890Z,103.45
2022-08-29T04:31:24.219Z,100.68
2022-08-29T04:33:53.429Z,101.18
2022-08-29T04:36:24.023Z,106.70
2022-08-29T04:38:55.051Z,103.00
2022-08-29T04:41:24.301Z,106.28
2022-08-29T04:43:53.618Z,109.88
2022-08-29T04:46:24.569Z,102.45
2022-08-29T04:48:55.016Z,106.03
2022-08-29T04:51:25.914Z,97.65
2022-08-29T04:53:55.216Z,105.43
2022-08-29T04:56:24.631Z,103.82
2022-08-29T04:58:53.872Z,105.60
2022-08-29T05:01:27.119Z,107.93
2022-08-29T05:03:58.107Z,112.15
2022-08-29T05:06:30.570Z,112.22
2022-08-29T05:09:00.214Z,105.43
2022-08-29T05:11:31.617Z,116.22
2022-08-29T05:14:02.606Z,107.20
2022-08-29T05:16:37.192Z,108.65
2022-08-29T05:19:08.617Z,110.82
2022-08-29T05:21:41.435Z,111.03
2022-08-29T05:24:13.195Z,110.15
2022-08-29T05:26:45.381Z,112.47
2022-08-29T05:29:15.104Z,112.18
2022-08-29T05:31:45.863Z,118.15
2022-08-29T05:34:32.519Z,112.70
2022-08-29T05:37:08.372Z,103.78
2022-08-29T05:39:39.184Z,112.65
2022-08-29T05:42:10.453Z,108.00
2022-08-29T05:44:40.879Z,123.72
2022-08-29T05:47:13.658Z,109.78
2022-08-29T05:49:45.068Z,108.63
2022-08-29T05:52:19.571Z,134.77
2022-08-29T05:54:48.985Z,118.13
2022-08-29T05:57:23.245Z,120.20
2022-08-29T05:59:54.702Z,104.13
2022-08-29T06:02:25.226Z,109.70
2022-08-29T06:04:54.774Z,112.78
2022-08-29T06:07:25.345Z,119.68
2022-08-29T06:09:54.693Z,112.28
2022-08-29T06:12:29.700Z,115.03
2022-08-29T06:14:58.898Z,113.60
2022-08-29T06:17:28.619Z,118.15
2022-08-29T06:19:57.756Z,123.95
2022-08-29T06:22:28.452Z,118.22
2022-08-29T06:24:58.449Z,126.97
2022-08-29T06:27:27.948Z,117.65
2022-08-29T06:30:01.269Z,128.95
2022-08-29T06:32:31.199Z,117.15
2022-08-29T06:35:00.724Z,114.35
2022-08-29T06:37:31.406Z,108.55
2022-08-29T06:40:00.888Z,97.60
2022-08-29T06:42:30.033Z,102.47
2022-08-29T06:45:00.600Z,117.70
2022-08-29T06:47:31.526Z,101.47
2022-08-29T06:50:01.034Z,102.55
2022-08-29T06:52:32.014Z,91.22
2022-08-29T06:55:01.573Z,89.78
2022-08-29T06:57:30.783Z,90.80
2022-08-29T07:00:00.026Z,100.00
2022-08-29T07:02:31.028Z,88.65
2022-08-29T07:05:00.354Z,91.75
2022-08-29T07:07:29.676Z,87.07
2022-08-29T07:10:07.103Z,89.45
2022-08-29T07:12:39.869Z,74.37
2022-08-29T07:15:12.905Z,84.07
2022-08-29T07:17:44.602Z,79.82
2022-08-29T07:20:14.381Z,83.47
2022-08-29T07:22:51.243Z,81.68
2022-08-29T07:25:23.358Z,86.57
2022-08-29T07:27:53.535Z,83.57
2022-08-29T07:30:23.872Z,87.40
2022-08-29T07:32:53.571Z,85.57
2022-08-29T07:35:30.544Z,73.40
2022-08-29T07:38:01.787Z,70.70
2022-08-29T07:40:32.638Z,68.35
2022-08-29T07:43:01.953Z,67.63
2022-08-29T07:45:31.423Z,63.08
2022-08-29T07:48:00.669Z,57.67
2022-08-29T07:50:29.887Z,63.42
2022-08-29T07:52:59.567Z,62.75
2022-08-29T07:55:28.742Z,61.80
2022-08-29T07:57:59.252Z,59.88
2022-08-29T08:00:29.049Z,62.33
2022-08-29T08:02:58.678Z,67.03
2022-08-29T08:05:28.493Z,84.25
2022-08-29T08:08:02.154Z,73.43
2022-08-29T08:10:33.989Z,95.72
2022-08-29T08:13:04.562Z,84.43
2022-08-29T08:15:33.860Z,70.90
2022-08-29T08:18:03.066Z,84.82
2022-08-29T08:20:32.397Z,100.90
2022-08-29T08:23:01.710Z,91.53
2022-08-29T08:25:31.031Z,84.18
2022-08-29T08:28:00.288Z,99.13
2022-08-29T08:30:34.987Z,94.43
2022-08-29T08:33:05.599Z,101.70
2022-08-29T08:35:37.313Z,105.22
2022-08-29T08:38:08.786Z,110.05
2022-08-29T08:40:45.123Z,89.63
2022-08-29T08:43:26.622Z,95.32
2022-08-29T08:45:58.596Z,109.97
2022-08-29T08:48:34.878Z,87.97
2022-08-29T08:51:11.037Z,101.07
2022-08-29T08:53:44.570Z,77.78
2022-08-29T08:56:21.267Z,121.15
2022-08-29T08:58:56.779Z,104.57
2022-08-29T09:01:33.497Z,92.68
2022-08-29T09:04:30.816Z,91.15
2022-08-29T09:07:14.944Z,104.45
2022-08-29T09:10:03.744Z,99.80
2022-08-29T09:12:49.789Z,99.82
2022-08-29T09:15:25.873Z,73.03
2022-08-29T09:18:01.237Z,83.93
2022-08-29T09:20:35.038Z,91.07
2022-08-29T09:23:12.337Z,81.47
2022-08-29T09:25:41.815Z,101.68
2022-08-29T09:28:11.405Z,91.10
2022-08-29T09:30:44.093Z,80.95
2022-08-29T09:33:17.602Z,72.20
2022-08-29T09:35:51.996Z,69.72
2022-08-29T09:38:25.756Z,94.00
2022-08-29T09:40:59.204Z,109.63
2022-08-29T09:43:34.665Z,96.28
2022-08-29T09:46:15.182Z,95.72
2022-08-29T09:48:48.326Z,119.38
2022-08-29T09:51:27.066Z,111.55
2022-08-29T09:54:16.515Z,111.68
2022-08-29T09:56:55.148Z,106.30
2022-08-29T09:59:29.460Z,99.95
2022-08-29T10:02:28.989Z,80.45
2022-08-29T10:05:05.969Z,93.75
2022-08-29T10:07:50.653Z,91.10
2022-08-29T10:10:23.149Z,78.68
2022-08-29T10:13:00.718Z,78.57
2022-08-29T10:15:51.765Z,107.60
2022-08-29T10:18:34.215Z,108.65
2022-08-29T10:21:30.586Z,96.32
2022-08-29T10:24:19.640Z,119.65
2022-08-29T10:27:01.444Z,107.00
2022-08-29T10:29:56.190Z,147.32
2022-08-29T10:32:44.455Z,109.80
2022-08-29T10:35:24.403Z,106.68
2022-08-29T10:38:01.209Z,134.23
2022-08-29T10:40:43.557Z,150.73
2022-08-29T10:43:36.188Z,106.30
2022-08-29T10:46:36.823Z,106.22
2022-08-29T10:49:17.954Z,105.60
2022-08-29T10:51:58.842Z,112.82
2022-08-29T10:54:42.616Z,98.68
2022-08-29T10:57:18.807Z,114.55
2022-08-29T11:00:07.232Z,98.72
2022-08-29T11:02:42.275Z,106.60
2022-08-29T11:05:26.970Z,122.30
2022-08-29T11:08:04.374Z,149.95
2022-08-29T11:10:42.411Z,102.43
2022-08-29T11:13:18.619Z,111.70
2022-08-29T11:15:59.196Z,124.65
2022-08-29T11:18:36.862Z,127.22
2022-08-29T11:21:17.466Z,109.57
2022-08-29T11:23:49.646Z,142.90
2022-08-29T11:26:37.790Z,99.57
2022-08-29T11:29:22.392Z,144.93
2022-08-29T11:32:00.547Z,120.53
2022-08-29T11:34:42.774Z,128.95
2022-08-29T11:37:54.651Z,125.65
2022-08-29T11:41:26.334Z,109.53
2022-08-29T11:43:44.160Z,113.43
2022-08-29T11:46:16.318Z,109.65
2022-08-29T11:48:47.628Z,136.10
2022-08-29T11:51:36.278Z,118.22
2022-08-29T11:54:54.321Z,119.03
2022-08-29T11:57:52.047Z,113.80
2022-08-29T12:00:48.716Z,123.68
2022-08-29T12:03:55.367Z,117.25
2022-08-29T12:07:01.148Z,154.85
2022-08-29T12:09:47.536Z,105.90
2022-08-29T12:12:41.271Z,120.70
2022-08-29T12:15:55.803Z,141.68
2022-08-29T12:18:47.553Z,141.68
2022-08-29T12:21:48.911Z,136.63
2022-08-29T12:24:43.076Z,134.20
2022-08-29T12:28:06.039Z,119.20
2022-08-29T12:30:42.936Z,147.93
2022-08-29T12:33:24.784Z,123.47
2022-08-29T12:36:18.805Z,120.43
2022-08-29T12:39:04.598Z,142.55
2022-08-29T12:41:51.084Z,134.70
2022-08-29T12:44:27.584Z,141.57
2022-08-29T12:47:05.001Z,110.88
2022-08-29T12:49:48.565Z,122.25
2022-08-29T12:52:28.602Z,103.28
2022-08-29T12:55:00.298Z,78.47
2022-08-29T12:57:37.016Z,97.68
2022-08-29T13:00:25.779Z,100.78
2022-08-29T13:03:02.357Z,105.78
2022-08-29T13:05:34.635Z,132.73
2022-08-29T13:08:12.485Z,115.85
2022-08-29T13:10:56.451Z,125.72
2022-08-29T13:13:28.154Z,148.20
2022-08-29T13:16:01.508Z,134.95
2022-08-29T13:18:33.750Z,145.75
2022-08-29T13:21:14.001Z,135.80
2022-08-29T13:23:47.438Z,140.35
2022-08-29T13:26:24.337Z,142.95
2022-08-29T13:28:57.348Z,192.70
2022-08-29T13:31:34.635Z,159.38
2022-08-29T13:34:27.190Z,201.40
2022-08-29T13:37:10.608Z,146.35
2022-08-29T13:39:49.129Z,183.52
2022-08-29T13:42:31.105Z,193.13
2022-08-29T13:45:23.492Z,155.52
2022-08-29T13:48:20.461Z,202.85
2022-08-29T13:50:49.861Z,155.63
2022-08-29T13:53:19.317Z,159.85
2022-08-29T13:55:49.896Z,156.18
2022-08-29T13:58:23.266Z,147.32
2022-08-29T14:00:52.508Z,178.35
2022-08-29T14:03:23.007Z,151.10
2022-08-29T14:05:56.414Z,137.65
2022-08-29T14:08:26.361Z,193.45
2022-08-29T14:10:57.050Z,135.93
2022-08-29T14:13:26.231Z,182.90
2022-08-29T14:15:55.495Z,175.65
2022-08-29T14:18:24.821Z,164.07
2022-08-29T14:20:53.966Z,159.32
2022-08-29T14:23:23.521Z,189.90
2022-08-29T14:25:52.835Z,197.90
2022-08-29T14:28:23.453Z,189.27
2022-08-29T14:30:52.783Z,189.77
2022-08-29T14:33:23.662Z,210.63
2022-08-29T14:35:53.384Z,184.20
2022-08-29T14:38:23.074Z,194.45
2022-08-29T14:40:52.509Z,184.30
2022-08-29T14:43:23.497Z,195.63
2022-08-29T14:45:52.910Z,206.18
2022-08-29T14:48:22.366Z,217.60
2022-08-29T14:50:51.782Z,194.23
2022-08-29T14:53:21.254Z,209.45
2022-08-29T14:55:50.947Z,231.00
2022-08-29T14:58:20.575Z,220.35
2022-08-29T15:00:51.808Z,224.23
2022-08-29T15:03:25.502Z,153.07
2022-08-29T15:05:54.826Z,192.98
2022-08-29T15:08:24.009Z,169.98
2022-08-29T15:10:53.632Z,177.57
2022-08-29T15:13:22.958Z,209.50
2022-08-29T15:15:53.794Z,146.75
2022-08-29T15:19:00.960Z,143.40
2022-08-29T15:21:14.334Z,141.50
2022-08-29T15:23:43.533Z,156.25
2022-08-29T15:26:14.220Z,123.80
2022-08-29T15:28:43.763Z,142.15
2022-08-29T15:31:15.154Z,137.57
2022-08-29T15:33:44.409Z,128.67
2022-08-29T15:36:13.757Z,108.25
2022-08-29T15:38:43.179Z,130.48
2022-08-29T15:41:12.576Z,115.63
2022-08-29T15:43:41.694Z,114.13
2022-08-29T15:46:10.939Z,123.07
2022-08-29T15:48:41.919Z,120.30
2022-08-29T15:51:11.114Z,159.60
2022-08-29T15:53:40.259Z,161.00
2022-08-29T15:56:10.394Z,196.98
2022-08-29T15:58:40.146Z,199.02
2022-08-29T16:01:09.444Z,237.60
2022-08-29T16:03:40.211Z,190.30
2022-08-29T16:06:10.889Z,247.00
2022-08-29T16:08:46.081Z,189.40
2022-08-29T16:11:16.139Z,180.40
2022-08-29T16:13:46.320Z,170.43
2022-08-29T16:16:15.770Z,238.65
2022-08-29T16:18:46.608Z,191.27
2022-08-29T16:21:16.010Z,163.00
2022-08-29T16:23:45.298Z,207.73
2022-08-29T16:26:19.802Z,146.77
2022-08-29T16:28:50.192Z,145.13
2022-08-29T16:31:21.394Z,132.63
2022-08-29T16:33:52.271Z,162.63
2022-08-29T16:36:22.399Z,167.82
2022-08-29T16:38:51.732Z,142.25
2022-08-29T16:41:23.117Z,139.80
2022-08-29T16:43:54.596Z,153.95
2022-08-29T16:46:31.110Z,140.15
2022-08-29T16:49:02.384Z,141.85
2022-08-29T16:51:32.007Z,145.43
2022-08-29T16:54:01.620Z,167.25
2022-08-29T16:56:32.937Z,169.35
2022-08-29T16:59:04.138Z,164.23
2022-08-29T17:01:37.252Z,148.38
2022-08-29T17:04:12.143Z,130.10
2022-08-29T17:06:43.242Z,134.18
2022-08-29T17:09:11.392Z,168.85
2022-08-29T17:11:39.523Z,156.98
2022-08-29T17:14:09.353Z,149.10
2022-08-29T17:16:39.749Z,169.25
2022-08-29T17:19:10.880Z,178.38
2022-08-29T17:21:40.455Z,148.55
2022-08-29T17:24:10.783Z,162.13
2022-08-29T17:26:44.522Z,174.98
2022-08-29T17:29:14.948Z,166.55
2022-08-29T17:31:44.659Z,181.02
2022-08-29T17:34:16.324Z,162.82
2022-08-29T17:36:46.086Z,165.90
2022-08-29T17:39:15.432Z,144.90
2022-08-29T17:41:45.704Z,168.70
2022-08-29T17:44:18.865Z,156.27
2022-08-29T17:46:48.156Z,140.45
2022-08-29T17:49:19.380Z,154.50
2022-08-29T17:51:53.847Z,175.00
2022-08-29T17:54:25.641Z,156.32
2022-08-29T17:56:58.006Z,138.70
2022-08-29T17:59:34.984Z,148.52
2022-08-29T18:02:05.788Z,137.55
2022-08-29T18:04:38.182Z,169.75
2022-08-29T18:07:07.520Z,153.77
2022-08-29T18:09:36.650Z,162.65
2022-08-29T18:12:07.077Z,139.50
2022-08-29T18:14:36.862Z,137.88
2022-08-29T18:17:06.194Z,153.60
2022-08-29T18:19:37.295Z,136.80
2022-08-29T18:22:06.632Z,141.65
2022-08-29T18:24:36.118Z,155.98
2022-08-29T18:27:05.896Z,139.77
2022-08-29T18:29:35.492Z,143.43
2022-08-29T18:32:05.275Z,141.93
2022-08-29T18:34:34.497Z,137.48
2022-08-29T18:37:05.313Z,141.57
2022-08-29T18:39:34.587Z,130.50
2022-08-29T18:42:04.646Z,120.55
2022-08-29T18:44:33.912Z,132.10
2022-08-29T18:47:03.388Z,128.13
2022-08-29T18:49:50.174Z,139.93
2022-08-29T18:52:21.646Z,145.68
2022-08-29T18:54:50.818Z,131.77
2022-08-29T18:57:19.974Z,154.05
2022-08-29T18:59:49.506Z,117.95
2022-08-29T19:02:18.706Z,113.57
2022-08-29T19:04:48.058Z,124.05
2022-08-29T19:07:20.402Z,118.43
2022-08-29T19:09:55.163Z,116.45
2022-08-29T19:12:24.577Z,117.57
2022-08-29T19:14:53.741Z,147.20
2022-08-29T19:17:23.077Z,123.88
2022-08-29T19:20:10.436Z,122.72
2022-08-29T19:22:39.999Z,105.13
2022-08-29T19:25:11.718Z,102.15
2022-08-29T19:27:44.090Z,102.28
2022-08-29T19:30:17.192Z,112.88
2022-08-29T19:32:46.654Z,146.43
2022-08-29T19:35:16.458Z,111.53
2022-08-29T19:37:46.019Z,107.15
2022-08-29T19:40:20.933Z,116.28
2022-08-29T19:42:50.602Z,96.00
2022-08-29T19:45:21.574Z,103.97
2022-08-29T19:47:52.203Z,97.55
2022-08-29T19:50:24.911Z,107.07
2022-08-29T19:52:55.804Z,128.27
2022-08-29T19:55:27.024Z,107.82
2022-08-29T19:57:56.278Z,127.63
2022-08-29T20:00:26.433Z,94.47
2022-08-29T20:02:59.720Z,95.97
2022-08-29T20:05:29.086Z,103.60
2022-08-29T20:07:58.924Z,118.70
2022-08-29T20:10:31.175Z,88.07
2022-08-29T20:13:00.479Z,115.50
2022-08-29T20:15:31.378Z,127.78
2022-08-29T20:18:02.441Z,91.35
2022-08-29T20:20:37.016Z,106.13
2022-08-29T20:23:07.388Z,103.68
2022-08-29T20:25:38.792Z,96.22
2022-08-29T20:28:08.253Z,114.38
2022-08-29T20:30:45.695Z,99.28
2022-08-29T20:33:19.250Z,126.40
2022-08-29T20:36:06.189Z,93.07
2022-08-29T20:38:35.556Z,85.47
2022-08-29T20:41:06.596Z,127.07
2022-08-29T20:43:39.067Z,125.05
2022-08-29T20:46:09.877Z,112.60
2022-08-29T20:48:39.909Z,101.78
2022-08-29T20:51:11.612Z,139.45
2022-08-29T20:53:41.891Z,96.03
2022-08-29T20:56:13.037Z,153.70
2022-08-29T20:58:42.266Z,113.10
2022-08-29T21:01:11.795Z,111.53
2022-08-29T21:03:58.757Z,96.10
2022-08-29T21:06:28.079Z,112.57
2022-08-29T21:08:57.359Z,100.35
2022-08-29T21:11:27.925Z,119.35
2022-08-29T21:13:57.134Z,102.57
2022-08-29T21:16:26.675Z,102.97
2022-08-29T21:18:56.127Z,129.63
2022-08-29T21:21:26.156Z,116.80
2022-08-29T21:23:55.542Z,109.18
2022-08-29T21:26:25.048Z,107.57
2022-08-29T21:28:55.672Z,97.32
2022-08-29T21:31:25.048Z,91.43
2022-08-29T21:33:54.601Z,105.75
2022-08-29T21:36:27.445Z,103.90
2022-08-29T21:39:00.646Z,130.98
2022-08-29T21:41:34.960Z,111.30
2022-08-29T21:44:08.688Z,119.25
2022-08-29T21:46:43.401Z,106.00
2022-08-29T21:49:21.878Z,99.60
2022-08-29T21:51:51.795Z,106.70
2022-08-29T21:54:21.353Z,103.53
2022-08-29T21:56:50.667Z,138.13
2022-08-29T21:59:21.969Z,97.63
2022-08-29T22:01:54.632Z,99.53
2022-08-29T22:04:29.130Z,117.70
2022-08-29T22:07:00.828Z,122.65
2022-08-29T22:09:34.568Z,103.65
2022-08-29T22:12:05.516Z,92.20
2022-08-29T22:14:53.655Z,103.97
2022-08-29T22:17:23.055Z,101.80
2022-08-29T22:19:52.395Z,122.90
2022-08-29T22:22:24.231Z,93.05
2022-08-29T22:24:53.900Z,110.97
2022-08-29T22:27:23.254Z,127.78
2022-08-29T22:29:53.937Z,107.20
2022-08-29T22:32:23.400Z,96.63
2022-08-29T22:34:52.612Z,92.50
2022-08-29T22:37:21.940Z,106.95
2022-08-29T22:39:51.076Z,112.82
2022-08-29T22:42:20.990Z,96.65
2022-08-29T22:45:06.134Z,84.40
2022-08-29T22:47:38.802Z,86.78
2022-08-29T22:52:40.238Z,104.90
2022-08-29T22:55:11.706Z,89.38
2022-08-29T22:57:42.145Z,93.90
2022-08-29T23:00:15.987Z,86.80
2022-08-29T23:02:47.192Z,89.47
2022-08-29T23:05:18.042Z,81.70
2022-08-29T23:07:48.109Z,83.35
2022-08-29T23:10:18.508Z,93.68
2022-08-29T23:12:47.900Z,100.07
2022-08-29T23:15:19.179Z,89.43
2022-08-29T23:17:52.177Z,108.97
2022-08-29T23:20:21.623Z,108.90
2022-08-29T23:22:50.979Z,103.95
2022-08-29T23:25:20.490Z,93.45
2022-08-29T23:27:49.642Z,96.25
2022-08-29T23:30:18.854Z,102.45
2022-08-29T23:32:49.390Z,96.28
2022-08-29T23:35:18.596Z,112.82
2022-08-29T23:37:47.723Z,117.50
2022-08-29T23:40:17.087Z,96.85
2022-08-29T23:42:46.462Z,103.07
2022-08-29T23:45:15.983Z,98.97
2022-08-29T23:47:45.509Z,94.38
2022-08-29T23:50:16.406Z,115.82
2022-08-29T23:52:46.550Z,98.40
2022-08-29T23:55:18.018Z,105.18
2022-08-29T23:57:47.518Z,109.50
